Time;durP1;ratioP1;P1;durP2;ratioP2;P2;SDS_P1;SDS_P2;PMS_P1;PMS_P2;Temp;Humidity;BMP_temperature;BMP_pressure;BME280_temperature;BME280_humidity;BME280_pressure;Samples;Min_cycle;Max_cycle;Signal;HPM_P1;HPM_P2
2022/05/04 00:00:09;;;;;;;28.17;17.67;;;11.30;92.50;;;;;;5111941;28;20048;-59
2022/05/04 00:02:38;;;;;;;27.13;16.70;;;11.30;92.60;;;;;;5112004;28;20058;-58
2022/05/04 00:05:04;;;;;;;;;;;11.30;92.50;;;;;;5112499;28;20071;-46
2022/05/04 00:07:30;;;;;;;26.75;16.67;;;11.30;92.30;;;;;;5111785;28;20020;-53
2022/05/04 00:09:57;;;;;;;26.50;16.73;;;11.40;92.30;;;;;;5111784;28;20027;-51
2022/05/04 00:12:23;;;;;;;26.38;16.77;;;11.30;92.30;;;;;;5099779;28;20096;-55
2022/05/04 00:14:49;;;;;;;28.00;17.17;;;11.30;92.50;;;;;;5091620;28;20031;-58
2022/05/04 00:17:15;;;;;;;24.60;16.33;;;11.40;92.30;;;;;;5109450;28;20023;-43
2022/05/04 00:19:40;;;;;;;24.33;16.17;;;11.40;92.50;;;;;;5111875;28;20450;-59
2022/05/04 00:22:06;;;;;;;23.13;16.27;;;11.40;92.30;;;;;;5111977;28;20383;-63
2022/05/04 00:24:32;;;;;;;27.08;15.45;;;11.40;92.00;;;;;;5111891;28;20367;-61
2022/05/04 00:26:57;;;;;;;27.33;15.25;;;11.50;92.00;;;;;;5111557;28;20386;-56
2022/05/04 00:29:23;;;;;;;27.17;15.20;;;11.40;92.10;;;;;;5110367;28;20474;-51
2022/05/04 00:31:48;;;;;;;21.95;14.98;;;11.40;92.40;;;;;;5107397;28;20020;-57
2022/05/04 00:34:14;;;;;;;26.08;15.77;;;11.30;92.30;;;;;;5102699;28;20027;-56
2022/05/04 00:36:40;;;;;;;23.75;15.55;;;11.30;92.20;;;;;;5111271;28;20030;-55
2022/05/04 00:39:05;;;;;;;21.08;13.60;;;11.40;92.20;;;;;;5111496;28;20074;-58
2022/05/04 00:41:31;;;;;;;23.33;13.75;;;11.30;92.30;;;;;;5111560;28;20119;-53
2022/05/04 00:43:57;;;;;;;23.35;13.93;;;11.40;92.20;;;;;;5111398;28;20015;-59
2022/05/04 00:46:23;;;;;;;22.08;14.02;;;11.50;92.00;;;;;;5111348;28;20023;-58
2022/05/04 00:48:50;;;;;;;30.17;15.45;;;11.50;91.90;;;;;;5111534;28;20023;-59
2022/05/04 00:51:16;;;;;;;25.42;14.88;;;11.50;91.50;;;;;;5112990;28;20028;-57
2022/05/04 00:53:43;;;;;;;23.63;14.48;;;11.50;91.60;;;;;;5115836;28;20111;-53
2022/05/04 00:56:09;;;;;;;26.65;14.82;;;11.40;91.90;;;;;;5115700;28;20023;-56
2022/05/04 00:58:55;;;;;;;23.65;14.38;;;11.40;92.10;;;;;;5115556;28;20024;-57
2022/05/04 01:01:28;;;;;;;23.77;15.93;;;11.30;92.10;;;;;;5115765;28;20078;-60
2022/05/04 01:03:55;;;;;;;22.00;14.27;;;11.30;92.40;;;;;;5115420;28;20456;-55
2022/05/04 01:06:21;;;;;;;27.33;15.25;;;11.40;92.10;;;;;;5114661;28;20466;-57
2022/05/04 01:08:48;;;;;;;23.40;14.75;;;11.40;92.40;;;;;;5108392;28;20028;-54
2022/05/04 01:11:14;;;;;;;25.60;15.68;;;11.30;92.30;;;;;;5113619;28;20148;-47
2022/05/04 01:13:39;;;;;;;27.95;15.52;;;11.30;92.30;;;;;;5095175;28;20489;-50
2022/05/04 01:16:05;;;;;;;25.35;16.10;;;11.20;92.30;;;;;;5100494;28;20030;-52
2022/05/04 01:18:31;;;;;;;26.58;16.30;;;11.20;92.40;;;;;;5115260;28;20382;-40
2022/05/04 01:20:56;;;;;;;27.20;14.73;;;11.20;92.60;;;;;;5115309;28;20046;-57
2022/05/04 01:23:22;;;;;;;23.65;15.32;;;11.20;92.40;;;;;;5115379;28;20469;-52
2022/05/04 01:25:50;;;;;;;25.50;16.20;;;11.20;92.50;;;;;;5115117;28;20030;-53
2022/05/04 01:28:15;;;;;;;27.95;16.58;;;11.10;92.50;;;;;;5115063;28;20020;-55
2022/05/04 01:30:41;;;;;;;27.27;17.23;;;11.10;92.70;;;;;;5115302;28;20034;-57
2022/05/04 01:33:06;;;;;;;30.40;17.95;;;11.10;92.60;;;;;;5115080;28;20374;-50
2022/05/04 01:35:32;;;;;;;27.15;15.48;;;11.10;92.50;;;;;;5115171;28;20401;-49
2022/05/04 01:37:58;;;;;;;29.88;18.27;;;11.10;92.60;;;;;;5114770;28;20546;-55
2022/05/04 01:40:23;;;;;;;29.75;18.08;;;11.00;93.00;;;;;;5114764;28;20043;-56
2022/05/04 01:42:49;;;;;;;29.02;18.02;;;11.00;92.70;;;;;;5114952;28;20035;-56
2022/05/04 01:45:15;;;;;;;29.75;17.45;;;11.00;92.80;;;;;;5114810;28;20036;-53
2022/05/04 01:47:41;;;;;;;32.92;18.70;;;11.00;92.80;;;;;;5095631;28;20024;-58
2022/05/04 01:50:07;;;;;;;31.98;18.75;;;11.00;92.40;;;;;;5114583;28;20061;-58
2022/05/04 01:52:32;;;;;;;28.65;18.48;;;11.00;92.40;;;;;;5114622;28;20110;-52
2022/05/04 01:55:01;;;;;;;35.10;21.15;;;11.00;92.50;;;;;;5114673;28;20119;-47
2022/05/04 01:57:27;;;;;;;35.10;19.92;;;11.00;92.40;;;;;;5100960;28;20031;-57
2022/05/04 01:59:53;;;;;;;34.17;19.83;;;10.90;92.70;;;;;;5111337;28;20080;-57
2022/05/04 02:02:19;;;;;;;33.47;20.77;;;10.90;92.90;;;;;;5114139;28;20094;-55
2022/05/04 02:04:45;;;;;;;38.15;21.48;;;10.90;93.00;;;;;;5114289;28;20490;-54
2022/05/04 02:07:11;;;;;;;34.70;20.42;;;10.90;93.00;;;;;;5114238;28;20034;-55
2022/05/04 02:09:37;;;;;;;34.20;20.33;;;10.90;93.00;;;;;;5114430;28;20116;-56
2022/05/04 02:12:04;;;;;;;27.13;18.45;;;10.80;93.10;;;;;;5096219;28;20493;-60
2022/05/04 02:14:32;;;;;;;37.40;19.58;;;10.80;93.20;;;;;;5114252;28;20024;-54
2022/05/04 02:16:58;;;;;;;34.38;19.67;;;10.80;93.30;;;;;;5097248;28;20029;-58
2022/05/04 02:19:23;;;;;;;32.08;18.95;;;10.80;93.20;;;;;;5093867;28;20371;-57
2022/05/04 02:21:49;;;;;;;33.28;20.02;;;10.80;93.10;;;;;;5093755;28;20512;-54
2022/05/04 02:24:15;;;;;;;34.75;19.55;;;10.70;93.60;;;;;;5093838;28;20034;-46
2022/05/04 02:26:40;;;;;;;27.52;18.40;;;10.70;93.30;;;;;;5108430;28;20068;-56
2022/05/04 02:29:06;;;;;;;32.78;18.70;;;10.70;93.30;;;;;;5113775;28;20088;-43
2022/05/04 02:31:31;;;;;;;31.98;19.17;;;10.60;93.30;;;;;;5114197;28;20065;-54
2022/05/04 02:33:57;;;;;;;33.00;19.52;;;10.70;93.40;;;;;;5113835;28;20020;-51
2022/05/04 02:39:07;;;;;;;32.22;18.55;;;10.60;93.40;;;;;;5093772;28;20131;-61
2022/05/04 02:41:33;;;;;;;27.05;18.02;;;10.60;93.60;;;;;;5093399;28;20469;-51
2022/05/04 02:44:01;;;;;;;30.67;18.85;;;10.60;93.80;;;;;;5093279;28;20016;-60
2022/05/04 02:46:28;;;;;;;33.53;19.42;;;10.60;93.60;;;;;;5105699;28;20043;-62
2022/05/04 02:48:54;;;;;;;34.92;19.63;;;10.60;93.50;;;;;;5113635;28;20023;-60
2022/05/04 02:51:20;;;;;;;32.58;19.02;;;10.60;93.40;;;;;;5113717;28;20444;-55
2022/05/04 02:53:45;;;;;;;32.05;18.95;;;10.70;93.50;;;;;;5113469;28;20043;-59
2022/05/04 02:56:13;;;;;;;31.23;18.95;;;10.60;93.60;;;;;;5103706;28;20028;-56
2022/05/04 02:58:39;;;;;;;31.75;19.52;;;10.70;93.60;;;;;;5091526;28;20126;-58
2022/05/04 03:02:26;;;;;;;37.15;20.40;;;10.60;93.60;;;;;;5092967;28;20100;-60
2022/05/04 03:03:54;;;;;;;30.92;18.08;;;10.60;93.50;;;;;;5092500;28;20040;-61
2022/05/04 03:06:20;;;;;;;32.55;18.77;;;10.50;93.80;;;;;;5092956;28;20039;-58
2022/05/04 03:08:45;;;;;;;34.67;19.30;;;10.50;93.70;;;;;;5092928;28;20378;-61
2022/05/04 03:13:55;;;;;;;33.78;18.67;;;10.50;93.70;;;;;;5092200;28;20439;-60
2022/05/04 03:16:20;;;;;;;32.33;18.88;;;10.60;93.60;;;;;;5102748;28;20520;-59
2022/05/04 03:18:46;;;;;;;33.10;19.55;;;10.50;93.50;;;;;;5113173;28;20106;-57
2022/05/04 03:21:12;;;;;;;35.15;20.23;;;10.50;93.70;;;;;;5102294;28;20041;-53
2022/05/04 03:23:37;;;;;;;33.05;19.95;;;10.50;93.70;;;;;;5071897;28;20027;-60
2022/05/04 03:26:03;;;;;;;34.22;19.67;;;10.50;93.70;;;;;;5080061;28;20443;-55
2022/05/04 03:28:28;;;;;;;34.38;20.77;;;10.40;93.70;;;;;;5092578;28;20028;-57
2022/05/04 03:30:54;;;;;;;34.92;19.92;;;10.40;93.80;;;;;;5092371;28;20028;-56
2022/05/04 03:33:20;;;;;;;35.92;20.23;;;10.40;93.70;;;;;;5074333;28;20169;-50
2022/05/04 03:35:45;;;;;;;31.95;19.73;;;10.50;93.80;;;;;;5092108;28;20047;-59
2022/05/04 03:38:11;;;;;;;37.67;21.42;;;10.40;93.70;;;;;;5092287;28;20028;-55
2022/05/04 03:40:36;;;;;;;36.80;20.80;;;10.40;93.70;;;;;;5092201;28;20115;-59
2022/05/04 03:43:02;;;;;;;33.30;21.85;;;10.40;93.80;;;;;;5092243;28;20024;-59
2022/05/04 03:45:28;;;;;;;37.40;21.30;;;10.40;93.90;;;;;;5073530;28;20517;-48
2022/05/04 03:47:53;;;;;;;34.80;20.30;;;10.40;93.80;;;;;;5092050;28;20028;-53
2022/05/04 03:50:19;;;;;;;33.38;20.08;;;10.40;93.80;;;;;;5092025;28;20031;-57
2022/05/04 03:52:44;;;;;;;36.38;20.48;;;10.40;93.80;;;;;;5092058;28;20466;-55
2022/05/04 03:55:10;;;;;;;38.92;21.38;;;10.40;93.80;;;;;;5091898;28;20030;-57
2022/05/04 03:57:36;;;;;;;36.83;23.20;;;10.30;93.90;;;;;;5091454;28;20092;-52
2022/05/04 04:00:03;;;;;;;37.42;22.85;;;10.30;94.00;;;;;;5091815;28;20039;-56
2022/05/04 04:02:30;;;;;;;36.00;22.13;;;10.30;94.20;;;;;;5091846;28;20044;-58
2022/05/04 04:04:56;;;;;;;37.78;21.48;;;10.30;94.10;;;;;;5100144;28;20105;-56
2022/05/04 04:07:21;;;;;;;36.15;20.75;;;10.30;94.50;;;;;;5109405;28;20020;-57
2022/05/04 04:09:47;;;;;;;36.03;21.00;;;10.30;94.30;;;;;;5112002;28;20382;-55
2022/05/04 04:12:12;;;;;;;34.85;20.50;;;10.30;94.30;;;;;;5112107;28;20398;-57
2022/05/04 04:14:38;;;;;;;37.17;21.35;;;10.20;94.30;;;;;;5111979;28;20372;-60
2022/05/04 04:17:04;;;;;;;41.70;22.65;;;10.20;94.40;;;;;;5093529;28;20023;-57
2022/05/04 04:19:30;;;;;;;37.75;21.27;;;10.30;94.40;;;;;;5112079;28;20485;-60
2022/05/04 04:21:55;;;;;;;36.42;22.65;;;10.30;94.30;;;;;;5111725;28;20053;-54
2022/05/04 04:24:22;;;;;;;35.00;21.98;;;10.30;94.40;;;;;;5111752;28;20035;-46
2022/05/04 04:26:47;;;;;;;37.75;21.83;;;10.30;94.30;;;;;;5111488;28;20107;-58
2022/05/04 04:29:13;;;;;;;35.88;21.20;;;10.40;94.30;;;;;;5111669;28;20060;-61
2022/05/04 04:31:39;;;;;;;33.45;20.05;;;10.40;94.20;;;;;;5111713;28;20024;-58
2022/05/04 04:34:07;;;;;;;35.15;22.15;;;10.30;94.30;;;;;;5111544;28;20434;-57
2022/05/04 04:36:33;;;;;;;41.50;22.00;;;10.30;94.50;;;;;;5093587;28;20115;-56
2022/05/04 04:38:59;;;;;;;39.63;22.75;;;10.40;94.50;;;;;;5111760;28;20023;-57
2022/05/04 04:41:24;;;;;;;40.28;23.58;;;10.40;94.50;;;;;;5111361;28;20046;-50
2022/05/04 04:43:50;;;;;;;40.72;24.25;;;10.40;94.30;;;;;;5111654;28;20023;-62
2022/05/04 04:46:15;;;;;;;37.05;23.50;;;10.40;94.30;;;;;;5111515;28;20423;-61
2022/05/04 04:48:41;;;;;;;38.25;23.58;;;10.40;94.30;;;;;;5111254;28;20028;-58
2022/05/04 04:51:07;;;;;;;37.47;22.60;;;10.50;94.40;;;;;;5093247;28;20047;-58
2022/05/04 04:53:33;;;;;;;41.35;24.52;;;10.40;94.30;;;;;;5111539;28;20070;-42
2022/05/04 04:55:59;;;;;;;38.67;23.00;;;10.50;94.20;;;;;;5111620;28;20102;-57
2022/05/04 04:58:25;;;;;;;37.85;22.42;;;10.50;94.30;;;;;;5111088;28;20034;-53
2022/05/04 05:00:51;;;;;;;37.55;22.77;;;10.50;94.20;;;;;;5111611;28;20172;-49
2022/05/04 05:03:17;;;;;;;41.30;25.10;;;10.50;94.40;;;;;;5111266;28;20034;-58
2022/05/04 05:05:44;;;;;;;38.17;23.38;;;10.50;94.30;;;;;;5111393;28;20035;-57
2022/05/04 05:08:11;;;;;;;44.03;24.92;;;10.50;94.30;;;;;;5111187;28;20024;-55
2022/05/04 05:10:37;;;;;;;38.53;23.65;;;10.50;94.40;;;;;;5111330;28;20031;-59
2022/05/04 05:13:03;;;;;;;38.67;24.80;;;10.50;94.40;;;;;;5111551;28;20114;-50
2022/05/04 05:18:14;;;;;;;42.67;24.65;;;10.60;94.50;;;;;;5111314;28;20038;-60
2022/05/04 05:20:40;;;;;;;42.70;24.70;;;10.70;94.40;;;;;;5111268;28;20039;-43
2022/05/04 05:23:05;;;;;;;45.58;26.25;;;10.70;94.20;;;;;;5111199;28;20359;-59
2022/05/04 05:25:32;;;;;;;39.28;24.75;;;10.70;94.00;;;;;;5100078;28;20023;-53
2022/05/04 05:27:58;;;;;;;42.88;25.05;;;10.70;93.90;;;;;;5094578;28;20028;-55
2022/05/04 05:30:25;;;;;;;41.00;26.38;;;10.70;93.90;;;;;;5091198;28;20020;-55
2022/05/04 05:32:51;;;;;;;46.10;26.35;;;10.70;93.90;;;;;;5101488;28;20043;-56
2022/05/04 05:35:16;;;;;;;39.83;25.13;;;10.70;94.30;;;;;;5095017;28;20087;-59
2022/05/04 05:37:42;;;;;;;38.78;25.33;;;10.70;94.00;;;;;;5092934;28;20076;-57
2022/05/04 05:40:08;;;;;;;41.08;25.85;;;10.80;93.90;;;;;;5114798;28;20108;-61
2022/05/04 05:42:35;;;;;;;42.22;26.77;;;10.80;93.90;;;;;;5115140;28;20035;-55
2022/05/04 05:45:01;;;;;;;45.30;26.70;;;10.80;93.90;;;;;;5114974;28;20031;-55
2022/05/04 05:47:26;;;;;;;42.50;27.00;;;10.80;93.60;;;;;;5114983;28;20482;-55
2022/05/04 05:49:52;;;;;;;38.53;24.10;;;10.90;93.90;;;;;;5111147;28;20096;-60
2022/05/04 05:52:18;;;;;;;43.85;26.25;;;10.90;93.60;;;;;;5100068;28;20110;-54
2022/05/04 05:54:44;;;;;;;43.80;25.80;;;10.80;93.80;;;;;;5114628;28;20062;-60
2022/05/04 05:57:09;;;;;;;41.25;24.40;;;10.80;93.80;;;;;;5114820;28;20393;-60
2022/05/04 05:59:35;;;;;;;42.38;26.42;;;10.80;93.90;;;;;;5114246;28;20431;-57
2022/05/04 06:02:01;;;;;;;45.22;25.23;;;10.80;94.00;;;;;;5114598;28;20115;-60
2022/05/04 06:04:27;;;;;;;40.42;25.40;;;10.80;93.80;;;;;;5114340;28;20494;-56
2022/05/04 06:06:54;;;;;;;42.38;25.35;;;10.90;93.90;;;;;;5102255;28;20027;-63
2022/05/04 06:09:20;;;;;;;49.92;28.55;;;10.90;93.70;;;;;;5101025;28;20016;-59
2022/05/04 06:11:45;;;;;;;43.20;26.67;;;10.90;93.70;;;;;;5112648;28;20027;-50
2022/05/04 06:14:11;;;;;;;40.92;25.63;;;11.00;93.80;;;;;;5114120;28;20102;-51
2022/05/04 06:16:37;;;;;;;42.85;25.80;;;11.00;93.90;;;;;;5113248;28;20036;-46
2022/05/04 06:19:03;;;;;;;45.53;28.52;;;10.90;93.90;;;;;;5113917;28;20027;-59
2022/05/04 06:21:29;;;;;;;43.97;27.67;;;10.90;94.00;;;;;;5112666;28;20038;-58
2022/05/04 06:23:55;;;;;;;43.95;26.52;;;11.00;93.70;;;;;;5113988;28;20015;-53
2022/05/04 06:26:23;;;;;;;44.47;27.98;;;11.10;94.10;;;;;;5114506;28;20074;-55
2022/05/04 06:28:48;;;;;;;41.40;26.48;;;11.20;93.60;;;;;;5114001;28;20466;-53
2022/05/04 06:34:07;;;;;;;41.28;26.95;;;11.40;93.70;;;;;;5113875;28;20084;-55
2022/05/04 06:36:40;;;;;;;43.60;26.42;;;11.40;93.20;;;;;;5113917;28;20024;-54
2022/05/04 06:39:10;;;;;;;41.25;26.38;;;11.50;93.20;;;;;;5113938;28;20394;-57
2022/05/04 06:41:37;;;;;;;46.25;27.48;;;11.40;93.30;;;;;;5095516;28;20027;-52
2022/05/04 06:44:06;;;;;;;42.58;26.95;;;11.50;93.20;;;;;;5113535;28;20031;-43
2022/05/04 06:46:32;;;;;;;47.25;29.13;;;11.50;93.30;;;;;;5113662;28;20020;-39
2022/05/04 06:48:58;;;;;;;42.03;26.60;;;11.60;93.40;;;;;;5112289;28;20447;-61
2022/05/04 06:51:24;;;;;;;42.15;27.83;;;11.60;93.10;;;;;;5113645;28;20502;-60
2022/05/04 06:53:50;;;;;;;42.05;27.75;;;11.60;93.00;;;;;;5113574;28;20027;-38
2022/05/04 06:56:16;;;;;;;39.47;26.52;;;11.50;93.20;;;;;;5095255;28;20390;-45
2022/05/04 06:58:43;;;;;;;45.05;28.58;;;11.60;93.70;;;;;;5113485;28;20019;-41
2022/05/04 07:01:10;;;;;;;42.85;28.58;;;11.60;93.40;;;;;;5112684;28;20031;-40
2022/05/04 07:03:36;;;;;;;49.22;28.65;;;11.60;93.10;;;;;;5113006;28;20046;-46
2022/05/04 07:06:02;;;;;;;47.08;28.98;;;11.70;93.20;;;;;;5113569;28;20027;-41
2022/05/04 07:08:27;;;;;;;41.20;27.88;;;11.70;93.00;;;;;;5113336;28;20027;-41
2022/05/04 07:10:53;;;;;;;44.92;28.45;;;11.70;93.40;;;;;;5113073;28;20034;-40
2022/05/04 07:13:18;;;;;;;40.40;27.02;;;11.90;93.20;;;;;;5111543;28;20500;-39
2022/05/04 07:15:44;;;;;;;46.42;30.38;;;11.90;93.70;;;;;;5095091;28;20107;-39
2022/05/04 07:18:10;;;;;;;44.65;30.58;;;12.10;93.50;;;;;;5090339;28;20020;-59
2022/05/04 07:20:36;;;;;;;48.15;30.45;;;12.10;93.70;;;;;;5100148;28;20034;-52
2022/05/04 07:23:01;;;;;;;39.53;26.45;;;12.20;93.00;;;;;;5109680;28;20011;-58
2022/05/04 07:25:27;;;;;;;40.65;27.90;;;12.30;92.90;;;;;;5105238;28;20544;-48
2022/05/04 07:27:53;;;;;;;42.15;29.10;;;12.40;93.10;;;;;;5096239;28;20082;-60
2022/05/04 07:30:19;;;;;;;42.63;28.13;;;12.50;92.90;;;;;;5109694;28;20027;-48
2022/05/04 07:32:44;;;;;;;39.25;25.88;;;12.50;93.10;;;;;;5090276;28;20055;-58
2022/05/04 07:35:10;;;;;;;39.03;26.02;;;12.60;93.00;;;;;;5100488;28;20051;-61
2022/05/04 07:37:36;;;;;;;38.05;24.67;;;12.70;92.60;;;;;;5112172;28;20055;-55
2022/05/04 07:42:46;;;;;;;41.97;24.17;;;12.90;92.10;;;;;;5109204;28;20153;-60
2022/05/04 07:45:13;;;;;;;31.73;22.38;;;12.90;91.90;;;;;;5091953;28;20464;-55
2022/05/04 07:47:39;;;;;;;32.53;21.98;;;12.90;91.00;;;;;;5099384;28;20028;-51
2022/05/04 07:50:07;;;;;;;32.47;22.25;;;12.90;91.60;;;;;;5111576;28;20080;-51
2022/05/04 07:52:33;;;;;;;30.35;21.52;;;12.90;91.60;;;;;;5092314;28;20024;-53
2022/05/04 07:54:59;;;;;;;33.17;22.40;;;13.00;91.20;;;;;;5090565;28;20024;-47
2022/05/04 07:57:25;;;;;;;30.17;20.63;;;13.00;91.70;;;;;;5089613;28;20047;-53
2022/05/04 08:05:24;;;;;;;29.30;21.23;;;13.30;90.70;;;;;;5090002;28;20478;-50
2022/05/04 08:07:50;;;;;;;30.73;21.58;;;13.40;90.70;;;;;;5098663;28;20016;-53
2022/05/04 08:10:16;;;;;;;33.50;22.20;;;13.50;90.70;;;;;;5111807;28;20107;-48
2022/05/04 08:12:41;;;;;;;33.22;21.80;;;13.60;90.20;;;;;;5093061;28;20027;-54
2022/05/04 08:15:07;;;;;;;36.80;23.20;;;13.70;90.00;;;;;;5111601;28;20032;-55
2022/05/04 08:17:33;;;;;;;32.60;21.40;;;13.70;90.40;;;;;;5111882;28;20024;-57
2022/05/04 08:19:59;;;;;;;30.52;21.88;;;13.70;89.90;;;;;;5111817;28;20097;-50
2022/05/04 08:22:26;;;;;;;34.00;22.15;;;13.70;90.70;;;;;;5111836;28;20111;-46
2022/05/04 08:24:52;;;;;;;33.72;22.65;;;13.70;89.50;;;;;;5111385;28;20023;-50
2022/05/04 08:27:18;;;;;;;32.25;21.98;;;13.70;90.80;;;;;;5111313;28;20031;-56
2022/05/04 08:29:47;;;;;;;34.95;22.88;;;13.80;90.70;;;;;;5111858;28;20019;-41
2022/05/04 08:32:13;;;;;;;;;;;13.90;90.10;;;;;;5112297;28;20114;-60
2022/05/04 08:34:39;;;;;;;31.70;21.27;;;14.00;90.70;;;;;;5111346;28;19943;-52
2022/05/04 08:37:05;;;;;;;30.73;21.58;;;14.10;89.30;;;;;;5111651;28;20059;-55
2022/05/04 08:39:31;;;;;;;34.38;21.73;;;14.10;88.30;;;;;;5111695;28;20028;-57
2022/05/04 08:41:58;;;;;;;27.48;20.80;;;14.20;87.60;;;;;;5111685;28;20396;-51
2022/05/04 08:44:23;;;;;;;32.83;22.42;;;14.30;89.20;;;;;;5105697;28;20050;-49
2022/05/04 08:46:50;;;;;;;32.38;22.17;;;14.50;89.10;;;;;;5086859;28;20478;-52
2022/05/04 08:49:19;;;;;;;33.58;22.10;;;14.80;85.50;;;;;;5103008;28;20468;-56
2022/05/04 08:51:45;;;;;;;32.20;21.35;;;15.10;85.20;;;;;;5099852;28;20028;-52
2022/05/04 08:54:11;;;;;;;32.88;22.23;;;15.40;81.60;;;;;;5106386;28;20020;-54
2022/05/04 08:56:37;;;;;;;34.83;21.85;;;15.80;78.30;;;;;;5092095;28;20012;-55
2022/05/04 08:59:04;;;;;;;31.13;21.90;;;16.20;78.90;;;;;;5090279;28;20067;-43
2022/05/04 09:01:36;;;;;;;29.70;21.85;;;16.70;76.80;;;;;;5090589;28;20040;-53
2022/05/04 09:04:03;;;;;;;31.42;21.70;;;17.10;74.90;;;;;;5090238;28;20079;-56
2022/05/04 09:06:33;;;;;;;28.13;21.00;;;17.50;74.10;;;;;;5104298;28;20031;-58
2022/05/04 09:09:08;;;;;;;30.27;21.23;;;17.90;71.10;;;;;;5091148;28;20025;-56
2022/05/04 09:11:37;;;;;;;31.33;22.23;;;18.30;72.70;;;;;;5090465;28;20046;-58
2022/05/04 09:14:13;;;;;;;30.67;22.30;;;18.60;68.20;;;;;;5092887;28;20035;-46
2022/05/04 09:16:40;;;;;;;33.38;23.30;;;18.50;67.90;;;;;;5108325;28;20035;-53
2022/05/04 09:19:11;;;;;;;34.30;24.48;;;18.40;67.90;;;;;;5103053;28;20056;-50
2022/05/04 09:21:38;;;;;;;33.15;24.42;;;18.20;70.10;;;;;;5105409;28;20194;-55
2022/05/04 09:24:05;;;;;;;36.10;25.98;;;18.00;70.50;;;;;;5092311;28;20021;-47
2022/05/04 09:26:31;;;;;;;36.65;25.40;;;18.30;68.90;;;;;;5092613;28;20107;-57
2022/05/04 09:28:59;;;;;;;39.03;25.60;;;18.60;69.40;;;;;;5101683;28;20051;-57
2022/05/04 09:31:30;;;;;;;33.78;23.77;;;18.80;66.80;;;;;;5096359;28;20020;-51
2022/05/04 09:33:58;;;;;;;35.42;25.00;;;19.00;68.90;;;;;;5096059;28;20024;-45
2022/05/04 09:36:31;;;;;;;34.83;24.77;;;19.20;68.80;;;;;;5106503;28;20035;-46
2022/05/04 09:45:16;;;;;;;35.42;25.45;;;20.20;66.50;;;;;;5097096;28;20062;-51
2022/05/04 09:47:47;;;;;;;31.92;23.73;;;20.60;63.50;;;;;;5113239;28;20470;-45
2022/05/04 09:50:15;;;;;;;33.17;23.65;;;20.80;64.10;;;;;;5101475;28;20074;-49
2022/05/04 09:52:46;;;;;;;30.65;23.38;;;21.00;60.50;;;;;;5101985;28;20474;-53
2022/05/04 09:55:24;;;;;;;32.97;24.13;;;21.00;61.90;;;;;;5096702;28;20073;-54
2022/05/04 09:57:50;;;;;;;34.13;24.30;;;21.10;60.30;;;;;;5093531;28;20104;-55
2022/05/04 10:00:19;;;;;;;32.10;24.05;;;20.70;58.90;;;;;;5098546;28;20034;-44
2022/05/04 10:02:45;;;;;;;34.65;25.40;;;20.40;61.20;;;;;;5095093;28;20540;-47
2022/05/04 11:20:15;;;;;;;35.55;24.48;;;19.10;65.30;;;;;;5109140;27;20785;-57
2022/05/04 11:22:41;;;;;;;34.08;23.88;;;18.90;66.00;;;;;;5108387;28;20028;-52
2022/05/04 11:25:08;;;;;;;33.47;22.77;;;18.90;71.50;;;;;;5108262;28;20475;-55
2022/05/04 11:27:33;;;;;;;31.35;22.98;;;19.20;70.50;;;;;;5108684;28;20016;-40
2022/05/04 11:30:02;;;;;;;30.33;21.55;;;19.50;68.10;;;;;;5090601;28;20065;-45
2022/05/04 11:32:29;;;;;;;31.08;22.98;;;19.80;67.50;;;;;;5108812;28;20028;-49
2022/05/04 11:34:56;;;;;;;30.35;22.80;;;19.80;65.00;;;;;;5090303;28;20038;-52
2022/05/04 11:37:24;;;;;;;27.88;22.30;;;19.70;61.70;;;;;;5090503;28;20028;-45
2022/05/04 11:39:49;;;;;;;30.55;21.67;;;19.60;65.40;;;;;;5108628;28;20081;-51
2022/05/04 11:42:15;;;;;;;30.88;22.15;;;19.70;66.20;;;;;;5108375;28;20747;-56
2022/05/04 11:44:46;;;;;;;30.30;21.90;;;19.50;64.30;;;;;;5108966;28;20042;-44
2022/05/04 11:47:13;;;;;;;31.75;21.75;;;19.40;64.30;;;;;;5107934;28;20016;-50
2022/05/04 11:49:39;;;;;;;30.83;21.52;;;19.20;65.20;;;;;;5108467;28;20103;-51
2022/05/04 11:52:05;;;;;;;31.27;22.67;;;19.10;64.60;;;;;;5107243;28;20119;-56
2022/05/04 11:54:31;;;;;;;30.33;22.67;;;18.90;66.20;;;;;;5108100;28;20054;-48
2022/05/04 11:56:57;;;;;;;28.58;21.13;;;19.00;67.10;;;;;;5107785;28;20024;-58
2022/05/04 11:59:31;;;;;;;32.15;22.77;;;19.00;65.90;;;;;;5108260;28;20040;-48
2022/05/04 12:01:58;;;;;;;32.55;22.67;;;18.90;65.00;;;;;;5088105;28;20034;-46
2022/05/04 12:04:25;;;;;;;33.38;22.38;;;18.90;68.10;;;;;;5107879;28;20053;-47
2022/05/04 12:06:51;;;;;;;32.22;23.80;;;18.80;67.70;;;;;;5107595;28;20031;-48
2022/05/04 12:09:18;;;;;;;33.97;23.35;;;18.60;67.40;;;;;;5107423;28;20024;-47
2022/05/04 12:11:44;;;;;;;34.30;24.48;;;18.30;67.80;;;;;;5107482;28;20478;-46
2022/05/04 12:14:10;;;;;;;34.10;25.38;;;18.00;69.40;;;;;;5106710;28;20114;-38
2022/05/04 12:16:36;;;;;;;35.55;25.05;;;17.80;70.10;;;;;;5108214;28;20879;-43
2022/05/04 12:19:02;;;;;;;36.05;24.33;;;17.70;72.60;;;;;;5107397;28;20055;-47
2022/05/04 12:21:27;;;;;;;36.70;25.48;;;17.50;72.30;;;;;;5106561;28;20027;-47
2022/05/04 12:23:54;;;;;;;40.75;26.63;;;17.30;72.90;;;;;;5107866;28;20077;-51
2022/05/04 12:26:21;;;;;;;38.60;26.67;;;17.20;73.40;;;;;;5107612;28;20024;-41
2022/05/04 12:34:25;;;;;;;42.20;27.08;;;17.10;74.70;;;;;;5094308;28;20477;-58
2022/05/04 12:36:51;;;;;;;37.72;26.13;;;17.10;74.70;;;;;;5093979;28;20020;-56
2022/05/04 12:39:17;;;;;;;37.53;25.80;;;17.10;74.50;;;;;;5094217;28;20035;-51
2022/05/04 12:41:45;;;;;;;34.85;25.50;;;17.10;74.70;;;;;;5093217;28;20024;-40
2022/05/04 12:44:14;;;;;;;38.47;26.10;;;17.20;74.80;;;;;;5093043;28;20442;-55
2022/05/04 12:46:40;;;;;;;34.45;24.17;;;17.20;73.80;;;;;;5092672;28;20035;-49
2022/05/04 12:49:06;;;;;;;35.97;25.83;;;17.30;73.80;;;;;;5058928;28;20032;-45
2022/05/04 12:51:32;;;;;;;35.85;26.15;;;17.30;73.80;;;;;;5093624;28;20016;-48
2022/05/04 12:53:58;;;;;;;38.85;27.33;;;17.30;73.80;;;;;;5093622;28;20027;-51
2022/05/04 12:59:08;;;;;;;36.78;25.30;;;17.40;73.40;;;;;;5093645;28;20093;-54
2022/05/04 13:01:36;;;;;;;36.50;25.45;;;17.50;73.50;;;;;;5093049;28;20421;-54
2022/05/04 13:04:02;;;;;;;36.40;25.00;;;17.50;73.10;;;;;;5093701;28;20032;-53
2022/05/04 13:06:27;;;;;;;36.38;25.77;;;17.50;73.80;;;;;;5093380;28;20047;-51
2022/05/04 13:08:53;;;;;;;38.03;25.58;;;17.40;73.40;;;;;;5093498;28;20114;-49
2022/05/04 13:11:22;;;;;;;36.33;25.45;;;17.40;73.20;;;;;;5075195;28;20513;-50
2022/05/04 13:13:48;;;;;;;37.30;26.88;;;17.30;73.90;;;;;;5093343;28;20024;-55
2022/05/04 13:16:15;;;;;;;40.05;26.00;;;17.20;73.80;;;;;;5092525;28;20047;-50
2022/05/04 13:18:41;;;;;;;39.42;25.40;;;17.20;73.40;;;;;;5092613;28;20135;-40
2022/05/04 13:21:07;;;;;;;32.72;24.45;;;17.20;74.30;;;;;;5093089;28;20028;-44
2022/05/04 13:23:33;;;;;;;35.78;24.70;;;17.20;74.00;;;;;;5092125;28;20041;-53
2022/05/04 13:25:59;;;;;;;37.75;25.50;;;17.10;75.30;;;;;;5092204;28;20024;-46
2022/05/04 13:28:26;;;;;;;37.25;25.55;;;17.10;74.40;;;;;;5092344;28;20484;-57
2022/05/04 13:30:52;;;;;;;36.03;25.95;;;17.00;74.90;;;;;;5091612;28;20463;-41
2022/05/04 13:33:18;;;;;;;36.50;26.92;;;17.10;75.50;;;;;;5092505;28;20040;-56
2022/05/04 13:35:44;;;;;;;35.40;26.00;;;17.10;74.90;;;;;;5092690;28;20016;-46
2022/05/04 13:38:10;;;;;;;39.20;26.77;;;17.20;74.10;;;;;;5092456;28;20032;-52
2022/05/04 13:40:36;;;;;;;40.42;25.90;;;17.20;74.90;;;;;;5092320;28;20032;-46
2022/05/04 13:43:02;;;;;;;36.53;25.67;;;17.10;74.50;;;;;;5091391;28;20109;-48
2022/05/04 13:45:27;;;;;;;36.95;25.30;;;17.30;75.70;;;;;;5092281;28;20021;-59
2022/05/04 13:47:53;;;;;;;36.60;25.13;;;17.30;74.60;;;;;;5092057;28;20054;-58
2022/05/04 13:53:15;;;;;;;35.80;24.35;;;17.40;73.10;;;;;;5091489;28;20519;-51
2022/05/04 13:55:52;;;;;;;36.35;25.08;;;17.40;73.70;;;;;;5091631;28;20035;-51
2022/05/04 13:58:24;;;;;;;36.55;24.58;;;17.30;73.80;;;;;;5091704;28;20103;-44
2022/05/04 14:00:51;;;;;;;37.15;23.23;;;17.20;73.10;;;;;;5091641;28;20035;-57
2022/05/04 14:03:18;;;;;;;39.40;24.65;;;17.30;75.60;;;;;;5092074;28;20039;-56
2022/05/04 14:05:44;;;;;;;38.38;25.02;;;17.40;74.40;;;;;;5091731;28;20024;-57
2022/05/04 14:08:10;;;;;;;38.03;25.95;;;17.50;73.50;;;;;;5091292;28;20046;-49
2022/05/04 14:10:39;;;;;;;39.72;26.10;;;17.60;72.00;;;;;;5091103;28;20032;-57
2022/05/04 14:13:05;;;;;;;32.78;23.25;;;17.60;71.10;;;;;;5091534;28;20031;-43
2022/05/04 14:15:31;;;;;;;34.92;23.13;;;17.70;72.40;;;;;;5072902;28;20119;-49